Time;durP1;ratioP1;P1;durP2;ratioP2;P2;SDS_P1;SDS_P2;PMS_P1;PMS_P2;Temp;Humidity;BMP_temperature;BMP_pressure;BME280_temperature;BME280_humidity;BME280_pressure;Samples;Min_cycle;Max_cycle;Signal;HPM_P1;HPM_P2
2022/09/13 00:00:53;;;;;;;8.30;4.38;;;;;;;-145.67;100.00;66521.78;4944568;28;20057;-63
2022/09/13 00:03:20;;;;;;;8.35;4.78;;;;;;;-145.67;100.00;66521.78;4914628;28;22165;-64
2022/09/13 00:05:46;;;;;;;9.15;4.35;;;;;;;-145.67;100.00;66521.78;4928539;28;20031;-64
2022/09/13 00:08:12;;;;;;;8.98;4.57;;;;;;;-145.67;100.00;66521.78;4945475;28;20038;-65
2022/09/13 00:10:39;;;;;;;12.73;7.03;;;;;;;-145.67;100.00;66521.78;4922952;28;20046;-64
2022/09/13 00:13:07;;;;;;;10.13;4.13;;;;;;;-145.67;100.00;66521.78;4928190;28;21556;-63
2022/09/13 00:15:33;;;;;;;9.48;4.47;;;;;;;-145.67;100.00;66521.78;4945218;28;20059;-63
2022/09/13 00:17:58;;;;;;;11.15;4.72;;;;;;;-145.67;100.00;66521.78;4936300;28;20815;-63
2022/09/13 00:20:24;;;;;;;9.93;4.70;;;;;;;-145.67;100.00;66521.78;4928091;28;20078;-63
2022/09/13 00:22:50;;;;;;;9.82;4.13;;;;;;;-145.67;100.00;66521.78;4923612;28;20075;-64
2022/09/13 00:25:18;;;;;;;9.65;3.90;;;;;;;-145.67;100.00;66521.78;4944370;28;20042;-64
2022/09/13 00:27:43;;;;;;;9.48;4.13;;;;;;;-145.67;100.00;66521.78;4944163;28;20041;-65
2022/09/13 00:30:12;;;;;;;5.90;3.67;;;;;;;-145.67;100.00;66521.78;4945010;28;20064;-64
2022/09/13 00:32:38;;;;;;;7.35;3.53;;;;;;;-145.67;100.00;66521.78;4944353;28;20039;-64
2022/09/13 00:35:05;;;;;;;7.70;3.35;;;;;;;-145.67;100.00;66521.78;4923332;28;20102;-63
2022/09/13 00:37:35;;;;;;;5.80;3.25;;;;;;;-145.67;100.00;66521.78;4944878;28;20141;-63
2022/09/13 00:40:01;;;;;;;8.75;3.47;;;;;;;-145.67;100.00;66521.78;4943806;28;20031;-63
2022/09/13 00:42:28;;;;;;;6.80;3.30;;;;;;;-145.67;100.00;66521.78;4922690;28;20174;-65
2022/09/13 00:45:02;;;;;;;6.60;3.50;;;;;;;-145.67;100.00;66521.78;4927860;28;20069;-64
2022/09/13 00:47:27;;;;;;;4.35;3.00;;;;;;;-145.67;100.00;66521.78;4943899;28;20031;-64
2022/09/13 00:49:58;;;;;;;5.88;3.05;;;;;;;-145.67;100.00;66521.78;4941798;28;20435;-63
2022/09/13 00:52:25;;;;;;;5.40;2.80;;;;;;;-145.67;100.00;66521.78;4944651;28;20042;-64
2022/09/13 00:54:56;;;;;;;7.10;3.00;;;;;;;-145.67;100.00;66521.78;4942913;28;20031;-65
2022/09/13 00:57:25;;;;;;;5.70;2.83;;;;;;;-145.67;100.00;66521.78;4942951;28;20504;-64
2022/09/13 00:59:56;;;;;;;5.07;2.80;;;;;;;-145.67;100.00;66521.78;4944073;28;21095;-63
2022/09/13 01:02:22;;;;;;;6.53;2.90;;;;;;;-145.67;100.00;66521.78;4927420;28;20043;-64
2022/09/13 01:04:47;;;;;;;3.72;2.50;;;;;;;-145.67;100.00;66521.78;4937940;28;20039;-63
2022/09/13 01:07:14;;;;;;;8.65;2.83;;;;;;;-145.67;100.00;66521.78;4943536;28;20105;-64
2022/09/13 01:09:43;;;;;;;5.28;2.95;;;;;;;-145.67;100.00;66521.78;4922473;28;20039;-64
2022/09/13 01:12:44;;;;;;;6.38;2.92;;;;;;;-145.67;100.00;66521.78;4921974;28;20507;-63
2022/09/13 01:15:09;;;;;;;10.00;3.40;;;;;;;-145.67;100.00;66521.78;4937974;28;20050;-63
2022/09/13 01:17:35;;;;;;;5.55;2.80;;;;;;;-145.67;100.00;66521.78;4943627;28;20287;-63
2022/09/13 01:20:03;;;;;;;5.47;3.20;;;;;;;-145.67;100.00;66521.78;4927029;28;20038;-65
2022/09/13 01:22:46;;;;;;;6.65;2.90;;;;;;;-145.67;100.00;66521.78;4909818;28;20039;-63
2022/09/13 01:25:17;;;;;;;7.18;3.15;;;;;;;-145.67;100.00;66521.78;4943853;28;20035;-64
2022/09/13 01:28:02;;;;;;;5.80;2.95;;;;;;;-145.67;100.00;66521.78;4943426;28;20043;-63
2022/09/13 01:30:56;;;;;;;4.93;3.10;;;;;;;-145.67;100.00;66521.78;4925864;28;20043;-64
2022/09/13 01:33:43;;;;;;;5.22;2.78;;;;;;;-145.67;100.00;66521.78;4942594;28;20391;-64
2022/09/13 01:36:38;;;;;;;5.93;2.78;;;;;;;-145.67;100.00;66521.78;4925188;28;20118;-63
2022/09/13 01:39:16;;;;;;;7.10;3.22;;;;;;;-145.67;100.00;66521.78;4937774;28;20038;-65
2022/09/13 01:42:17;;;;;;;7.70;2.90;;;;;;;-145.67;100.00;66521.78;4926501;28;20039;-64
2022/09/13 01:45:03;;;;;;;4.13;2.78;;;;;;;-145.67;100.00;66521.78;4941183;28;20570;-63
2022/09/13 01:47:34;;;;;;;5.18;2.78;;;;;;;-145.67;100.00;66521.78;4942714;28;20035;-64
2022/09/13 01:50:18;;;;;;;5.30;3.08;;;;;;;-145.67;100.00;66521.78;4943082;28;20034;-63
2022/09/13 01:53:02;;;;;;;7.82;2.97;;;;;;;-145.67;100.00;66521.78;4941749;28;20062;-63
2022/09/13 01:56:03;;;;;;;8.05;3.15;;;;;;;-145.67;100.00;66521.78;4942953;28;20391;-64
2022/09/13 01:58:43;;;;;;;5.63;3.25;;;;;;;-145.67;100.00;66521.78;4941890;28;20089;-63
2022/09/13 02:01:20;;;;;;;4.40;2.70;;;;;;;-145.67;100.00;66521.78;4941458;28;20121;-64
2022/09/13 02:04:04;;;;;;;4.75;2.90;;;;;;;-145.67;100.00;66521.78;4926105;28;20042;-63
2022/09/13 02:06:34;;;;;;;7.30;3.30;;;;;;;-145.67;100.00;66521.78;4941806;28;20126;-64
2022/09/13 02:09:03;;;;;;;6.97;3.15;;;;;;;-145.67;100.00;66521.78;4941687;28;20046;-64
2022/09/13 02:11:32;;;;;;;6.18;3.10;;;;;;;-145.67;100.00;66521.78;4942651;28;20173;-63
2022/09/13 02:14:10;;;;;;;5.00;3.15;;;;;;;-145.67;100.00;66521.78;4936281;28;20444;-63
2022/09/13 02:16:44;;;;;;;3.97;2.92;;;;;;;-145.67;100.00;66521.78;4926288;28;21923;-64
2022/09/13 02:19:17;;;;;;;7.45;3.20;;;;;;;-145.67;100.00;66521.78;4919904;28;20031;-63
2022/09/13 02:21:48;;;;;;;5.28;2.97;;;;;;;-145.67;100.00;66521.78;4923329;28;20058;-64
2022/09/13 02:24:36;;;;;;;6.88;2.78;;;;;;;-145.67;100.00;66521.78;4926162;28;20041;-62
2022/09/13 02:27:06;;;;;;;8.00;3.28;;;;;;;-145.67;100.00;66521.78;4941781;28;20039;-63
2022/09/13 02:29:32;;;;;;;6.72;3.45;;;;;;;-145.67;100.00;66521.78;4942529;28;20055;-63
2022/09/13 02:32:14;;;;;;;6.78;3.72;;;;;;;-145.67;100.00;66521.78;4926182;28;20039;-63
2022/09/13 02:34:47;;;;;;;7.35;3.28;;;;;;;-145.67;100.00;66521.78;4941638;28;20176;-64
2022/09/13 02:37:15;;;;;;;4.90;3.20;;;;;;;-145.67;100.00;66521.78;4921146;28;20046;-64
2022/09/13 02:39:46;;;;;;;7.72;3.20;;;;;;;-145.67;100.00;66521.78;4942022;28;20198;-64
2022/09/13 02:42:11;;;;;;;8.32;3.20;;;;;;;-145.67;100.00;66521.78;4907680;28;20035;-64
2022/09/13 02:44:39;;;;;;;7.97;3.55;;;;;;;-145.67;100.00;66521.78;4945399;28;20484;-63
2022/09/13 02:47:39;;;;;;;11.73;3.50;;;;;;;-145.67;100.00;66521.78;4927236;28;20156;-63
2022/09/13 02:50:08;;;;;;;8.15;3.63;;;;;;;-145.67;100.00;66521.78;4944630;28;20034;-64
2022/09/13 02:52:51;;;;;;;10.38;3.90;;;;;;;-145.67;100.00;66521.78;4945720;28;20043;-63
2022/09/13 02:56:08;;;;;;;7.60;3.97;;;;;;;-145.67;100.00;66521.78;4925145;28;20035;-63
2022/09/13 02:58:45;;;;;;;15.07;4.13;;;;;;;-145.67;100.00;66521.78;4911871;28;20467;-62
2022/09/13 03:01:14;;;;;;;7.43;4.07;;;;;;;-145.67;100.00;66521.78;4945667;28;20039;-63
2022/09/13 03:03:44;;;;;;;7.95;4.22;;;;;;;-145.67;100.00;66521.78;4944795;28;20062;-63
2022/09/13 03:06:09;;;;;;;8.88;4.20;;;;;;;-145.67;100.00;66521.78;4946358;28;20070;-63
2022/09/13 03:08:35;;;;;;;8.57;3.88;;;;;;;-145.67;100.00;66521.78;4908529;28;20112;-63
2022/09/13 03:11:58;;;;;;;6.05;4.13;;;;;;;-145.67;100.00;66521.78;4944397;28;20027;-63
2022/09/13 03:14:44;;;;;;;5.63;3.63;;;;;;;-145.67;100.00;66521.78;4885841;29;20048;-63
2022/09/13 03:17:17;;;;;;;8.15;3.28;;;;;;;-145.67;100.00;66521.78;4886505;29;20625;-63
2022/09/13 03:20:02;;;;;;;7.78;3.15;;;;;;;-145.67;100.00;66521.78;4925175;28;20240;-63
2022/09/13 03:23:15;;;;;;;9.25;3.70;;;;;;;-145.67;100.00;66521.78;4929664;28;20062;-63
2022/09/13 03:26:07;;;;;;;9.48;3.85;;;;;;;-145.67;100.00;66521.78;4925813;28;20107;-63
2022/09/13 03:28:40;;;;;;;8.25;3.28;;;;;;;-145.67;100.00;66521.78;4945252;28;20041;-64
2022/09/13 03:31:15;;;;;;;6.47;3.05;;;;;;;-145.67;100.00;66521.78;4946238;28;20039;-63
2022/09/13 03:33:48;;;;;;;9.25;4.25;;;;;;;-145.67;100.00;66521.78;4945744;28;20053;-64
2022/09/13 03:36:20;;;;;;;7.57;3.17;;;;;;;-145.67;100.00;66521.78;4945293;28;20567;-63
2022/09/13 03:38:57;;;;;;;9.73;2.95;;;;;;;-145.67;100.00;66521.78;4892108;28;20043;-64
2022/09/13 03:41:30;;;;;;;5.93;2.85;;;;;;;-145.67;100.00;66521.78;4945204;28;20098;-64
2022/09/13 03:43:58;;;;;;;6.43;2.33;;;;;;;-145.67;100.00;66521.78;4944892;28;20396;-64
2022/09/13 03:46:31;;;;;;;4.68;1.90;;;;;;;-145.67;100.00;66521.78;4928180;28;20030;-63
2022/09/13 03:49:08;;;;;;;4.65;1.90;;;;;;;-145.67;100.00;66521.78;4923460;28;20038;-63
2022/09/13 03:51:34;;;;;;;5.35;1.73;;;;;;;-145.67;100.00;66521.78;4928265;28;20503;-63
2022/09/13 03:54:09;;;;;;;5.28;2.38;;;;;;;-145.67;100.00;66521.78;4945208;28;20424;-64
2022/09/13 03:56:34;;;;;;;4.90;2.65;;;;;;;-145.67;100.00;66521.78;4943875;28;20313;-63
2022/09/13 03:59:00;;;;;;;5.25;2.28;;;;;;;-145.67;100.00;66521.78;4944525;28;20046;-64
2022/09/13 04:01:26;;;;;;;5.75;1.80;;;;;;;-145.67;100.00;66521.78;4943809;28;20047;-63
2022/09/13 04:03:51;;;;;;;6.35;1.70;;;;;;;-145.67;100.00;66521.78;4943257;28;20031;-63
2022/09/13 04:06:19;;;;;;;4.85;1.50;;;;;;;-145.67;100.00;66521.78;4934655;28;20042;-63
2022/09/13 04:08:47;;;;;;;4.15;1.45;;;;;;;-145.67;100.00;66521.78;4931389;28;20074;-63
2022/09/13 04:11:12;;;;;;;4.05;1.80;;;;;;;-145.67;100.00;66521.78;4944763;28;20134;-62
2022/09/13 04:13:38;;;;;;;7.88;1.77;;;;;;;-145.67;100.00;66521.78;4927432;28;20050;-63
2022/09/13 04:16:04;;;;;;;4.68;1.38;;;;;;;-145.67;100.00;66521.78;4928343;28;20050;-63
2022/09/13 04:18:32;;;;;;;8.75;1.73;;;;;;;-145.67;100.00;66521.78;4945535;28;20039;-63
2022/09/13 04:21:01;;;;;;;7.88;1.90;;;;;;;-145.67;100.00;66521.78;4944341;28;20050;-63
2022/09/13 04:23:28;;;;;;;7.55;1.88;;;;;;;-145.67;100.00;66521.78;4944793;28;20094;-63
2022/09/13 04:25:53;;;;;;;8.98;1.90;;;;;;;-145.67;100.00;66521.78;4945243;28;20039;-64
2022/09/13 04:28:20;;;;;;;8.68;2.00;;;;;;;-145.67;100.00;66521.78;4944902;28;20047;-64
2022/09/13 04:30:47;;;;;;;6.40;1.80;;;;;;;-145.67;100.00;66521.78;4927521;28;20038;-65
2022/09/13 04:33:13;;;;;;;5.80;2.05;;;;;;;-145.67;100.00;66521.78;4944089;28;20236;-65
2022/09/13 04:35:39;;;;;;;9.82;1.98;;;;;;;-145.67;100.00;66521.78;4928250;28;20431;-65
2022/09/13 04:38:08;;;;;;;7.95;2.22;;;;;;;-145.67;100.00;66521.78;4943456;28;20111;-64
2022/09/13 04:40:34;;;;;;;4.93;2.05;;;;;;;-145.67;100.00;66521.78;4922846;28;20133;-64
2022/09/13 04:43:00;;;;;;;5.55;1.83;;;;;;;-145.67;100.00;66521.78;4927279;28;20035;-64
2022/09/13 04:45:25;;;;;;;5.47;1.85;;;;;;;-145.67;100.00;66521.78;4923133;28;20496;-64
2022/09/13 04:47:55;;;;;;;5.07;1.65;;;;;;;-145.67;100.00;66521.78;4943018;28;20050;-64
2022/09/13 04:50:21;;;;;;;5.60;1.90;;;;;;;-145.67;100.00;66521.78;4943708;28;20129;-64
2022/09/13 04:52:49;;;;;;;7.40;1.98;;;;;;;-145.67;100.00;66521.78;4944084;28;20054;-65
2022/09/13 04:55:14;;;;;;;7.68;2.05;;;;;;;-145.67;100.00;66521.78;4921962;28;20061;-63
2022/09/13 04:57:40;;;;;;;9.38;2.33;;;;;;;-145.67;100.00;66521.78;4942356;28;20060;-63
2022/09/13 05:00:07;;;;;;;6.35;1.77;;;;;;;-145.67;100.00;66521.78;4922008;28;20085;-64
2022/09/13 05:02:32;;;;;;;7.85;1.88;;;;;;;-145.67;100.00;66521.78;4944313;28;20520;-65
2022/09/13 05:04:58;;;;;;;5.95;1.50;;;;;;;-145.67;100.00;66521.78;4943397;28;20149;-64
2022/09/13 05:07:23;;;;;;;9.80;1.90;;;;;;;-145.67;100.00;66521.78;4927034;28;20045;-64
2022/09/13 05:09:51;;;;;;;7.32;2.00;;;;;;;-145.67;100.00;66521.78;4924249;28;20109;-63
2022/09/13 05:12:16;;;;;;;6.45;2.00;;;;;;;-145.67;100.00;66521.78;4943669;28;20067;-63
2022/09/13 05:14:44;;;;;;;8.43;1.83;;;;;;;-145.67;100.00;66521.78;4926943;28;20042;-64
2022/09/13 05:17:12;;;;;;;5.22;1.90;;;;;;;-145.67;100.00;66521.78;4943858;28;20045;-64
2022/09/13 05:19:37;;;;;;;5.50;1.90;;;;;;;-145.67;100.00;66521.78;4927031;28;20035;-64
2022/09/13 05:22:03;;;;;;;6.15;1.60;;;;;;;-145.67;100.00;66521.78;4943375;28;20035;-64
2022/09/13 05:24:28;;;;;;;3.13;1.20;;;;;;;-145.67;100.00;66521.78;4943450;28;20428;-64
2022/09/13 05:26:53;;;;;;;4.00;1.30;;;;;;;-145.67;100.00;66521.78;4926143;28;20043;-64
2022/09/13 05:29:21;;;;;;;9.68;1.35;;;;;;;-145.67;100.00;66521.78;4943654;28;20059;-63
2022/09/13 05:31:46;;;;;;;3.55;1.00;;;;;;;-145.67;100.00;66521.78;4943202;28;20085;-63
2022/09/13 05:34:14;;;;;;;5.03;1.00;;;;;;;-145.67;100.00;66521.78;4943545;28;20046;-63
2022/09/13 05:36:40;;;;;;;3.28;1.25;;;;;;;-145.67;100.00;66521.78;4910394;28;21920;-63
2022/09/13 05:39:07;;;;;;;6.93;1.40;;;;;;;-145.67;100.00;66521.78;4922286;28;21066;-63
2022/09/13 05:41:32;;;;;;;6.93;1.30;;;;;;;-145.67;100.00;66521.78;4943458;28;20031;-63
2022/09/13 05:44:02;;;;;;;5.32;1.10;;;;;;;-145.67;100.00;66521.78;4943618;28;21994;-63
2022/09/13 05:46:30;;;;;;;5.53;1.23;;;;;;;-145.67;100.00;66521.78;4926606;28;20537;-64
2022/09/13 05:48:59;;;;;;;5.57;1.55;;;;;;;-145.67;100.00;66521.78;4942826;28;20480;-64
2022/09/13 05:51:27;;;;;;;6.90;1.25;;;;;;;-145.67;100.00;66521.78;4943178;28;20057;-64
2022/09/13 05:53:54;;;;;;;4.40;1.27;;;;;;;-145.67;100.00;66521.78;4920127;28;20363;-63
2022/09/13 05:56:25;;;;;;;7.18;1.60;;;;;;;-145.67;100.00;66521.78;4905234;28;20158;-64
2022/09/13 05:58:54;;;;;;;5.27;1.37;;;;;;;-145.67;100.00;66521.78;4905123;28;20074;-63
2022/09/13 06:01:21;;;;;;;4.93;1.40;;;;;;;-145.67;100.00;66521.78;4941754;28;20520;-63
2022/09/13 06:03:51;;;;;;;9.60;1.60;;;;;;;-145.67;100.00;66521.78;4921289;28;20068;-64
2022/09/13 06:06:17;;;;;;;7.68;1.40;;;;;;;-145.67;100.00;66521.78;4925253;28;20050;-63
2022/09/13 06:08:43;;;;;;;5.93;1.55;;;;;;;-145.67;100.00;66521.78;4926353;28;20136;-64
2022/09/13 06:11:13;;;;;;;8.13;1.50;;;;;;;-145.67;100.00;66521.78;4942863;28;20062;-63
2022/09/13 06:13:39;;;;;;;5.13;1.40;;;;;;;-145.67;100.00;66521.78;4909329;28;20050;-65
2022/09/13 06:16:10;;;;;;;5.07;1.30;;;;;;;-145.67;100.00;66521.78;4942468;28;20049;-64
2022/09/13 06:18:36;;;;;;;5.03;1.40;;;;;;;-145.67;100.00;66521.78;4935002;28;20038;-64
2022/09/13 06:21:03;;;;;;;6.80;1.30;;;;;;;-145.67;100.00;66521.78;4942998;28;20082;-63
2022/09/13 06:23:29;;;;;;;6.03;1.40;;;;;;;-145.67;100.00;66521.78;4926370;28;20041;-63
2022/09/13 06:26:09;;;;;;;4.72;1.15;;;;;;;-145.67;100.00;66521.78;4926397;28;20038;-64
2022/09/13 06:28:37;;;;;;;6.15;1.17;;;;;;;-145.67;100.00;66521.78;4920874;28;20043;-65
2022/09/13 06:31:07;;;;;;;4.60;1.25;;;;;;;-145.67;100.00;66521.78;4921195;28;20046;-63
2022/09/13 06:33:36;;;;;;;5.75;1.10;;;;;;;-145.67;100.00;66521.78;4924320;28;20203;-64
2022/09/13 06:36:04;;;;;;;3.53;1.10;;;;;;;-145.67;100.00;66521.78;4943465;28;20039;-63
2022/09/13 06:38:31;;;;;;;4.03;1.00;;;;;;;-145.67;100.00;66521.78;4909814;28;20081;-64
2022/09/13 06:41:06;;;;;;;7.03;1.25;;;;;;;-145.67;100.00;66521.78;4925928;28;20571;-64
2022/09/13 06:43:32;;;;;;;6.97;1.30;;;;;;;-145.67;100.00;66521.78;4925695;28;20041;-64
2022/09/13 06:46:09;;;;;;;4.90;1.08;;;;;;;-145.67;100.00;66521.78;4941054;28;20039;-63
2022/09/13 06:48:38;;;;;;;5.43;1.05;;;;;;;-145.67;100.00;66521.78;4919495;28;20038;-64
2022/09/13 06:51:12;;;;;;;4.13;0.90;;;;;;;-145.67;100.00;66521.78;4942422;28;20034;-64
2022/09/13 06:53:38;;;;;;;3.88;1.17;;;;;;;-145.67;100.00;66521.78;4903374;28;20050;-64
2022/09/13 06:56:05;;;;;;;6.80;1.23;;;;;;;-145.67;100.00;66521.78;4926785;28;20526;-64
2022/09/13 06:58:31;;;;;;;7.85;1.58;;;;;;;-145.67;100.00;66521.78;4940636;28;20500;-64
2022/09/13 07:01:11;;;;;;;5.32;1.20;;;;;;;-145.67;100.00;66521.78;4905555;28;20042;-64
2022/09/13 07:03:48;;;;;;;6.82;1.38;;;;;;;-145.67;100.00;66521.78;4940888;28;20035;-64
2022/09/13 07:06:17;;;;;;;6.07;1.20;;;;;;;-145.67;100.00;66521.78;4941027;28;20496;-63
2022/09/13 07:08:46;;;;;;;6.70;1.40;;;;;;;-145.67;100.00;66521.78;4920534;28;20563;-63
2022/09/13 07:11:13;;;;;;;6.47;1.40;;;;;;;-145.67;100.00;66521.78;4942433;28;20038;-63
2022/09/13 07:13:39;;;;;;;4.53;1.00;;;;;;;-145.67;100.00;66521.78;4941092;28;20077;-63
2022/09/13 07:16:07;;;;;;;5.13;1.30;;;;;;;-145.67;100.00;66521.78;4941999;28;20110;-63
2022/09/13 07:18:35;;;;;;;4.95;1.10;;;;;;;-145.67;100.00;66521.78;4924533;28;20155;-63
2022/09/13 07:21:07;;;;;;;6.82;1.42;;;;;;;-145.67;100.00;66521.78;4923259;28;20067;-64
2022/09/13 07:23:36;;;;;;;4.78;1.30;;;;;;;-145.67;100.00;66521.78;4941368;28;20042;-64
2022/09/13 07:26:06;;;;;;;9.52;1.23;;;;;;;-145.67;100.00;66521.78;4921049;28;20512;-64
2022/09/13 07:28:36;;;;;;;5.18;1.10;;;;;;;-145.67;100.00;66521.78;4928046;28;20122;-64
2022/09/13 07:31:10;;;;;;;6.13;1.20;;;;;;;-145.67;100.00;66521.78;4946017;28;20027;-63
2022/09/13 07:33:40;;;;;;;9.63;1.30;;;;;;;-145.67;100.00;66521.78;4943997;28;20066;-63
2022/09/13 07:36:06;;;;;;;7.57;1.38;;;;;;;-145.67;100.00;66521.78;4945271;28;21023;-64
2022/09/13 07:38:34;;;;;;;7.28;1.40;;;;;;;-145.67;100.00;66521.78;4928615;28;20050;-63
2022/09/13 07:40:59;;;;;;;4.35;1.23;;;;;;;-145.67;100.00;66521.78;4945444;28;20527;-63
2022/09/13 07:43:25;;;;;;;6.47;1.40;;;;;;;-145.67;100.00;66521.78;4923088;28;20062;-63
2022/09/13 07:46:04;;;;;;;6.50;1.50;;;;;;;-145.67;100.00;66521.78;4945003;28;20049;-63
2022/09/13 07:48:31;;;;;;;7.53;1.45;;;;;;;-145.67;100.00;66521.78;4929198;28;20129;-63
2022/09/13 07:51:02;;;;;;;4.05;1.17;;;;;;;-145.67;100.00;66521.78;4928670;28;20043;-63
2022/09/13 07:53:30;;;;;;;6.93;1.20;;;;;;;-145.67;100.00;66521.78;4943380;28;20054;-63
2022/09/13 07:56:04;;;;;;;5.30;1.30;;;;;;;-145.67;100.00;66521.78;4945983;28;20312;-62
2022/09/13 07:58:30;;;;;;;5.13;1.48;;;;;;;-145.67;100.00;66521.78;4942350;28;21841;-64
2022/09/13 08:01:06;;;;;;;3.90;1.15;;;;;;;-145.67;100.00;66521.78;4923920;28;20035;-64
2022/09/13 08:03:33;;;;;;;3.28;1.02;;;;;;;-145.67;100.00;66521.78;4924256;28;20039;-63
2022/09/13 08:05:58;;;;;;;9.18;1.40;;;;;;;-145.67;100.00;66521.78;4928075;28;20042;-63
2022/09/13 08:08:26;;;;;;;4.13;1.00;;;;;;;-145.67;100.00;66521.78;4945775;28;20038;-63
2022/09/13 08:10:51;;;;;;;6.78;1.20;;;;;;;-145.67;100.00;66521.78;4945260;28;20365;-63
2022/09/13 08:13:17;;;;;;;3.92;1.10;;;;;;;-145.67;100.00;66521.78;4914794;28;20054;-63
2022/09/13 08:15:44;;;;;;;4.97;1.00;;;;;;;-145.67;100.00;66521.78;4944692;28;20121;-63
2022/09/13 08:18:15;;;;;;;6.03;1.25;;;;;;;-145.67;100.00;66521.78;4928377;28;20344;-64
2022/09/13 08:20:40;;;;;;;6.43;1.00;;;;;;;-145.67;100.00;66521.78;4931097;28;20039;-64
2022/09/13 08:23:09;;;;;;;4.25;1.20;;;;;;;-145.67;100.00;66521.78;4927899;28;20097;-64
2022/09/13 08:25:37;;;;;;;5.50;1.00;;;;;;;-145.67;100.00;66521.78;4928458;28;20403;-64
2022/09/13 08:28:08;;;;;;;4.95;1.05;;;;;;;-145.67;100.00;66521.78;4924084;28;20260;-63
2022/09/13 08:30:35;;;;;;;4.03;1.13;;;;;;;-145.67;100.00;66521.78;4944523;28;20039;-63
2022/09/13 08:33:04;;;;;;;3.83;0.80;;;;;;;-145.67;100.00;66521.78;4927699;28;20046;-64
2022/09/13 08:35:31;;;;;;;4.35;0.90;;;;;;;-145.67;100.00;66521.78;4926969;28;20062;-63
2022/09/13 08:37:57;;;;;;;4.93;0.95;;;;;;;-145.67;100.00;66521.78;4906333;28;20097;-63
2022/09/13 08:40:26;;;;;;;5.57;1.00;;;;;;;-145.67;100.00;66521.78;4922722;28;20713;-63
2022/09/13 08:43:13;;;;;;;8.45;1.10;;;;;;;-145.67;100.00;66521.78;4910855;28;20085;-64
2022/09/13 08:45:39;;;;;;;3.65;0.98;;;;;;;-145.67;100.00;66521.78;4944264;28;20091;-64
2022/09/13 08:48:11;;;;;;;6.00;1.02;;;;;;;-145.67;100.00;66521.78;4930224;28;20115;-63
2022/09/13 08:50:37;;;;;;;5.07;0.82;;;;;;;-145.67;100.00;66521.78;4938121;28;20035;-64
2022/09/13 08:53:11;;;;;;;9.25;1.02;;;;;;;-145.67;100.00;66521.78;4943943;28;20082;-64
2022/09/13 08:55:53;;;;;;;6.90;0.82;;;;;;;-145.67;100.00;66521.78;4944586;28;20061;-64
2022/09/13 08:58:40;;;;;;;4.30;0.82;;;;;;;-145.67;100.00;66521.78;4942854;28;20035;-64
2022/09/13 09:01:25;;;;;;;6.57;0.90;;;;;;;-145.67;100.00;66521.78;4927724;28;20061;-64
2022/09/13 09:03:59;;;;;;;4.78;0.98;;;;;;;-145.67;100.00;66521.78;4943774;28;20031;-64
2022/09/13 09:06:25;;;;;;;4.97;0.80;;;;;;;-145.67;100.00;66521.78;4922790;28;20031;-63
2022/09/13 09:08:56;;;;;;;2.95;0.65;;;;;;;-145.67;100.00;66521.78;4926902;28;20035;-63
2022/09/13 09:11:34;;;;;;;2.85;0.75;;;;;;;-145.67;100.00;66521.78;4943493;28;20118;-63
2022/09/13 09:14:30;;;;;;;4.97;0.73;;;;;;;-145.67;100.00;66521.78;4944220;28;20046;-63
2022/09/13 09:17:05;;;;;;;5.75;0.88;;;;;;;-145.67;100.00;66521.78;4943382;28;20027;-62
2022/09/13 09:19:36;;;;;;;3.28;0.63;;;;;;;-145.67;100.00;66521.78;4943229;28;20154;-62
2022/09/13 09:22:08;;;;;;;3.95;0.88;;;;;;;-145.67;100.00;66521.78;4921465;28;20548;-63
2022/09/13 09:24:36;;;;;;;4.72;0.88;;;;;;;-145.67;100.00;66521.78;4927573;28;20386;-62
2022/09/13 09:27:11;;;;;;;3.20;0.82;;;;;;;-145.67;100.00;66521.78;4926496;28;20125;-63
2022/09/13 09:29:39;;;;;;;3.90;0.93;;;;;;;-145.67;100.00;66521.78;4926477;28;20038;-63
2022/09/13 09:32:46;;;;;;;5.68;0.90;;;;;;;-145.67;100.00;66521.78;4922962;28;20088;-63
2022/09/13 09:35:41;;;;;;;4.22;0.55;;;;;;;-145.67;100.00;66521.78;4926849;28;20053;-63
2022/09/13 09:38:15;;;;;;;6.78;1.00;;;;;;;-145.67;100.00;66521.78;4943297;28;20027;-63
2022/09/13 09:40:40;;;;;;;5.55;0.80;;;;;;;-145.67;100.00;66521.78;4927003;28;20488;-63
2022/09/13 09:43:29;;;;;;;6.63;0.90;;;;;;;-145.67;100.00;66521.78;4943658;28;20084;-63
2022/09/13 09:45:56;;;;;;;6.68;1.02;;;;;;;-145.67;100.00;66521.78;4942935;28;20122;-63
2022/09/13 09:48:27;;;;;;;5.38;0.90;;;;;;;-145.67;100.00;66521.78;4937725;28;20440;-63
2022/09/13 09:50:57;;;;;;;8.18;1.00;;;;;;;-145.67;100.00;66521.78;4906098;28;20035;-64
2022/09/13 09:53:30;;;;;;;5.47;0.77;;;;;;;-145.67;100.00;66521.78;4943016;28;20046;-64
2022/09/13 09:56:15;;;;;;;4.68;0.80;;;;;;;-145.67;100.00;66521.78;4942593;28;20038;-64
2022/09/13 09:58:42;;;;;;;4.22;1.10;;;;;;;-145.67;100.00;66521.78;4941359;28;20035;-64
2022/09/13 10:01:33;;;;;;;5.53;1.02;;;;;;;-145.67;100.00;66521.78;4936754;28;20094;-64
2022/09/13 10:04:11;;;;;;;4.78;0.90;;;;;;;-145.67;100.00;66521.78;4917667;28;20035;-63
2022/09/13 10:06:38;;;;;;;4.60;1.00;;;;;;;-145.67;100.00;66521.78;4943815;28;20038;-64
2022/09/13 10:09:08;;;;;;;8.25;1.10;;;;;;;-145.67;100.00;66521.78;4926134;28;20597;-66
2022/09/13 10:11:43;;;;;;;7.97;1.15;;;;;;;-145.67;100.00;66521.78;4928393;28;20042;-63
2022/09/13 10:14:29;;;;;;;4.82;0.77;;;;;;;-145.67;100.00;66521.78;4941576;28;20053;-65
2022/09/13 10:17:24;;;;;;;6.25;1.10;;;;;;;-145.67;100.00;66521.78;4925875;28;20097;-64
2022/09/13 10:20:02;;;;;;;4.18;0.75;;;;;;;-145.67;100.00;66521.78;4917310;28;20047;-63
2022/09/13 10:22:30;;;;;;;5.40;0.85;;;;;;;-145.67;100.00;66521.78;4941845;28;20242;-62
2022/09/13 10:25:22;;;;;;;5.30;0.98;;;;;;;-145.67;100.00;66521.78;4942882;28;20046;-63
2022/09/13 10:27:57;;;;;;;6.22;1.02;;;;;;;-145.67;100.00;66521.78;4925460;28;20042;-63
2022/09/13 10:31:07;;;;;;;7.25;0.90;;;;;;;-145.67;100.00;66521.78;4919701;28;20569;-63
2022/09/13 10:33:41;;;;;;;4.47;0.70;;;;;;;-145.67;100.00;66521.78;4864685;29;20441;-63
2022/09/13 10:36:18;;;;;;;7.45;0.98;;;;;;;-145.67;100.00;66521.78;4917366;28;20550;-64
2022/09/13 10:39:00;;;;;;;6.07;0.85;;;;;;;-145.67;100.00;66521.78;4941663;28;20046;-63
2022/09/13 10:41:28;;;;;;;5.43;1.08;;;;;;;-145.67;100.00;66521.78;4926378;28;20070;-63
2022/09/13 10:44:03;;;;;;;6.57;1.05;;;;;;;-145.67;100.00;66521.78;4942230;28;20086;-63
2022/09/13 10:46:30;;;;;;;6.40;1.00;;;;;;;-145.67;100.00;66521.78;4926496;28;20035;-63
2022/09/13 10:48:56;;;;;;;6.00;0.90;;;;;;;-145.67;100.00;66521.78;4942843;28;20122;-63
2022/09/13 10:51:24;;;;;;;5.60;0.90;;;;;;;-145.67;100.00;66521.78;4941166;28;20447;-64
2022/09/13 10:53:51;;;;;;;6.38;0.90;;;;;;;-145.67;100.00;66521.78;4941566;28;20064;-65
2022/09/13 10:56:21;;;;;;;4.53;0.80;;;;;;;-145.67;100.00;66521.78;4942811;28;20377;-64
2022/09/13 10:58:51;;;;;;;5.78;0.70;;;;;;;-145.67;100.00;66521.78;4942401;28;20062;-64
2022/09/13 11:01:34;;;;;;;7.30;0.98;;;;;;;-145.67;100.00;66521.78;4942750;28;20039;-63
2022/09/13 11:04:37;;;;;;;3.70;1.10;;;;;;;-145.67;100.00;66521.78;4929344;28;20043;-63
2022/09/13 11:07:26;;;;;;;4.63;0.80;;;;;;;-145.67;100.00;66521.78;4945771;28;20337;-63
2022/09/13 11:09:56;;;;;;;5.95;0.73;;;;;;;-145.67;100.00;66521.78;4945970;28;20045;-64
2022/09/13 11:12:51;;;;;;;5.47;0.77;;;;;;;-145.67;100.00;66521.78;4945364;28;20050;-64
2022/09/13 11:15:22;;;;;;;6.90;1.10;;;;;;;-145.67;100.00;66521.78;4941033;28;20067;-64
2022/09/13 11:18:29;;;;;;;5.68;0.80;;;;;;;-145.67;100.00;66521.78;4946214;28;20447;-64
2022/09/13 11:21:36;;;;;;;4.97;0.93;;;;;;;-145.67;100.00;66521.78;4927472;28;20039;-64
2022/09/13 11:24:21;;;;;;;4.38;0.80;;;;;;;-145.67;100.00;66521.78;4941103;28;20030;-63
2022/09/13 11:27:00;;;;;;;6.55;1.00;;;;;;;-145.67;100.00;66521.78;4932718;28;20049;-64
2022/09/13 11:29:55;;;;;;;6.80;0.90;;;;;;;-145.67;100.00;66521.78;4929283;28;20038;-64
2022/09/13 11:33:08;;;;;;;6.40;1.08;;;;;;;-145.67;100.00;66521.78;4945225;28;20464;-63
2022/09/13 11:35:56;;;;;;;5.35;0.98;;;;;;;-145.67;100.00;66521.78;4903520;28;20054;-64